sensor_id;sensor_type;location;lat;lon;timestamp;temperature;humidity
19947;DHT22;10135;50.702;7.276;2022-09-09T05:30:17;20.20;59.30
19947;DHT22;10135;50.702;7.276;2022-09-09T05:32:19;20.20;59.10
19947;DHT22;10135;50.702;7.276;2022-09-09T05:34:19;20.20;59.80
19947;DHT22;10135;50.702;7.276;2022-09-09T05:36:21;20.20;59.10
19947;DHT22;10135;50.702;7.276;2022-09-09T05:38:23;20.20;59.10
19947;DHT22;10135;50.702;7.276;2022-09-09T05:40:26;20.20;59.10
19947;DHT22;10135;50.702;7.276;2022-09-09T05:42:30;20.30;59.20
19947;DHT22;10135;50.702;7.276;2022-09-09T05:44:32;20.30;59.10
19947;DHT22;10135;50.702;7.276;2022-09-09T05:46:33;20.30;59.10
19947;DHT22;10135;50.702;7.276;2022-09-09T05:48:36;20.30;59.10
19947;DHT22;10135;50.702;7.276;2022-09-09T05:50:37;20.30;59.10
19947;DHT22;10135;50.702;7.276;2022-09-09T05:52:38;20.30;59.10
19947;DHT22;10135;50.702;7.276;2022-09-09T05:54:39;20.30;59.10
19947;DHT22;10135;50.702;7.276;2022-09-09T05:56:40;20.30;59.10
19947;DHT22;10135;50.702;7.276;2022-09-09T05:58:41;20.30;59.10
19947;DHT22;10135;50.702;7.276;2022-09-09T06:00:44;20.30;59.20
19947;DHT22;10135;50.702;7.276;2022-09-09T06:02:50;20.30;59.20
19947;DHT22;10135;50.702;7.276;2022-09-09T06:04:52;20.30;59.30
19947;DHT22;10135;50.702;7.276;2022-09-09T06:06:53;20.40;59.20
19947;DHT22;10135;50.702;7.276;2022-09-09T06:08:55;20.40;59.30
19947;DHT22;10135;50.702;7.276;2022-09-09T06:11:09;20.40;59.30
19947;DHT22;10135;50.702;7.276;2022-09-09T06:13:11;20.30;59.30
19947;DHT22;10135;50.702;7.276;2022-09-09T06:15:11;20.30;59.30
19947;DHT22;10135;50.702;7.276;2022-09-09T06:17:12;20.40;59.30
19947;DHT22;10135;50.702;7.276;2022-09-09T06:19:13;20.40;59.40
19947;DHT22;10135;50.702;7.276;2022-09-09T06:21:15;20.40;59.50
19947;DHT22;10135;50.702;7.276;2022-09-09T06:23:16;20.50;59.50
19947;DHT22;10135;50.702;7.276;2022-09-09T06:25:17;20.50;59.40
19947;DHT22;10135;50.702;7.276;2022-09-09T06:27:18;20.50;59.40
19947;DHT22;10135;50.702;7.276;2022-09-09T06:29:19;20.50;59.40
19947;DHT22;10135;50.702;7.276;2022-09-09T06:31:25;20.60;59.50
19947;DHT22;10135;50.702;7.276;2022-09-09T06:33:31;20.60;59.50
19947;DHT22;10135;50.702;7.276;2022-09-09T06:35:38;20.60;59.40
19947;DHT22;10135;50.702;7.276;2022-09-09T06:37:38;20.60;59.30
19947;DHT22;10135;50.702;7.276;2022-09-09T06:39:39;20.60;59.30
19947;DHT22;10135;50.702;7.276;2022-09-09T06:41:41;20.60;59.30
19947;DHT22;10135;50.702;7.276;2022-09-09T06:43:42;20.60;59.20
19947;DHT22;10135;50.702;7.276;2022-09-09T06:45:43;20.70;59.20
19947;DHT22;10135;50.702;7.276;2022-09-09T06:47:45;20.70;59.30
19947;DHT22;10135;50.702;7.276;2022-09-09T06:49:45;20.70;59.20
19947;DHT22;10135;50.702;7.276;2022-09-09T06:51:46;20.70;59.20
19947;DHT22;10135;50.702;7.276;2022-09-09T06:53:50;20.70;59.20
19947;DHT22;10135;50.702;7.276;2022-09-09T06:55:52;20.80;59.30
19947;DHT22;10135;50.702;7.276;2022-09-09T06:57:54;20.80;59.20
19947;DHT22;10135;50.702;7.276;2022-09-09T06:59:55;20.80;59.10
19947;DHT22;10135;50.702;7.276;2022-09-09T07:01:56;20.80;59.10
19947;DHT22;10135;50.702;7.276;2022-09-09T07:03:58;20.80;59.00
19947;DHT22;10135;50.702;7.276;2022-09-09T07:05:59;20.80;59.00
19947;DHT22;10135;50.702;7.276;2022-09-09T07:08:01;20.80;59.00
19947;DHT22;10135;50.702;7.276;2022-09-09T07:10:02;20.80;59.00
19947;DHT22;10135;50.702;7.276;2022-09-09T07:12:04;20.80;59.00
19947;DHT22;10135;50.702;7.276;2022-09-09T07:14:06;20.90;59.00
19947;DHT22;10135;50.702;7.276;2022-09-09T07:16:11;20.90;59.00
19947;DHT22;10135;50.702;7.276;2022-09-09T07:18:13;20.90;59.00
19947;DHT22;10135;50.702;7.276;2022-09-09T07:20:13;20.90;58.90
19947;DHT22;10135;50.702;7.276;2022-09-09T07:22:14;20.90;58.80
19947;DHT22;10135;50.702;7.276;2022-09-09T07:24:16;21.00;58.90
19947;DHT22;10135;50.702;7.276;2022-09-09T07:26:19;21.00;58.80
19947;DHT22;10135;50.702;7.276;2022-09-09T07:28:22;21.00;58.80
19947;DHT22;10135;50.702;7.276;2022-09-09T07:30:23;21.00;58.70
19947;DHT22;10135;50.702;7.276;2022-09-09T07:32:23;21.00;58.70
19947;DHT22;10135;50.702;7.276;2022-09-09T07:34:25;21.10;58.80
19947;DHT22;10135;50.702;7.276;2022-09-09T07:36:28;21.10;58.70
19947;DHT22;10135;50.702;7.276;2022-09-09T07:38:43;21.20;58.60
19947;DHT22;10135;50.702;7.276;2022-09-09T07:40:47;21.20;58.50
19947;DHT22;10135;50.702;7.276;2022-09-09T07:42:48;21.30;58.60
19947;DHT22;10135;50.702;7.276;2022-09-09T07:44:48;21.30;58.50
19947;DHT22;10135;50.702;7.276;2022-09-09T07:46:49;21.40;58.50
19947;DHT22;10135;50.702;7.276;2022-09-09T07:48:54;21.40;58.30
19947;DHT22;10135;50.702;7.276;2022-09-09T07:51:06;21.50;58.30
19947;DHT22;10135;50.702;7.276;2022-09-09T07:53:08;21.50;57.90
19947;DHT22;10135;50.702;7.276;2022-09-09T07:55:09;21.50;58.10
19947;DHT22;10135;50.702;7.276;2022-09-09T07:57:10;21.50;58.00
19947;DHT22;10135;50.702;7.276;2022-09-09T07:59:13;21.50;57.90
19947;DHT22;10135;50.702;7.276;2022-09-09T08:01:17;21.60;58.00
19947;DHT22;10135;50.702;7.276;2022-09-09T08:03:19;21.60;57.90
19947;DHT22;10135;50.702;7.276;2022-09-09T08:05:22;21.60;57.90
19947;DHT22;10135;50.702;7.276;2022-09-09T08:07:23;21.60;57.90
19947;DHT22;10135;50.702;7.276;2022-09-09T08:09:24;21.60;57.80
19947;DHT22;10135;50.702;7.276;2022-09-09T08:11:28;21.60;57.70
19947;DHT22;10135;50.702;7.276;2022-09-09T08:13:29;21.70;57.70
19947;DHT22;10135;50.702;7.276;2022-09-09T08:15:31;21.70;57.80
19947;DHT22;10135;50.702;7.276;2022-09-09T08:17:32;21.70;57.70
19947;DHT22;10135;50.702;7.276;2022-09-09T08:19:33;21.70;57.70
19947;DHT22;10135;50.702;7.276;2022-09-09T08:21:38;21.70;57.60
19947;DHT22;10135;50.702;7.276;2022-09-09T08:23:41;21.70;57.50
19947;DHT22;10135;50.702;7.276;2022-09-09T08:25:42;21.70;57.50
19947;DHT22;10135;50.702;7.276;2022-09-09T08:27:45;21.70;57.40
19947;DHT22;10135;50.702;7.276;2022-09-09T08:29:46;21.70;57.20
19947;DHT22;10135;50.702;7.276;2022-09-09T08:31:49;21.70;57.20
19947;DHT22;10135;50.702;7.276;2022-09-09T08:33:51;21.70;57.10
19947;DHT22;10135;50.702;7.276;2022-09-09T08:35:52;21.70;57.10
19947;DHT22;10135;50.702;7.276;2022-09-09T08:37:55;21.70;57.10
19947;DHT22;10135;50.702;7.276;2022-09-09T08:39:56;21.70;57.10
19947;DHT22;10135;50.702;7.276;2022-09-09T08:49:01;21.80;56.70
19947;DHT22;10135;50.702;7.276;2022-09-09T08:51:15;21.80;56.60
19947;DHT22;10135;50.702;7.276;2022-09-09T08:53:23;21.80;56.90
19947;DHT22;10135;50.702;7.276;2022-09-09T08:55:54;21.90;56.80
19947;DHT22;10135;50.702;7.276;2022-09-09T08:58:08;22.00;56.60
19947;DHT22;10135;50.702;7.276;2022-09-09T09:00:15;22.00;56.60
19947;DHT22;10135;50.702;7.276;2022-09-09T09:02:22;22.10;56.70
19947;DHT22;10135;50.702;7.276;2022-09-09T09:12:00;22.20;56.40
19947;DHT22;10135;50.702;7.276;2022-09-09T09:14:21;22.30;56.30
19947;DHT22;10135;50.702;7.276;2022-09-09T09:18:50;22.30;55.90
19947;DHT22;10135;50.702;7.276;2022-09-09T09:23:05;22.40;55.70
19947;DHT22;10135;50.702;7.276;2022-09-09T09:27:49;22.50;55.90
19947;DHT22;10135;50.702;7.276;2022-09-09T09:30:00;22.50;55.90
19947;DHT22;10135;50.702;7.276;2022-09-09T09:32:22;22.60;55.70
19947;DHT22;10135;50.702;7.276;2022-09-09T09:34:23;22.60;55.70
19947;DHT22;10135;50.702;7.276;2022-09-09T09:36:39;22.70;55.60
19947;DHT22;10135;50.702;7.276;2022-09-09T09:38:57;22.70;55.10
19947;DHT22;10135;50.702;7.276;2022-09-09T09:41:00;22.70;54.90
19947;DHT22;10135;50.702;7.276;2022-09-09T09:43:03;22.70;55.30
19947;DHT22;10135;50.702;7.276;2022-09-09T09:45:32;22.80;55.20
19947;DHT22;10135;50.702;7.276;2022-09-09T09:47:41;22.80;54.60
19947;DHT22;10135;50.702;7.276;2022-09-09T09:49:56;22.80;55.00
19947;DHT22;10135;50.702;7.276;2022-09-09T09:52:03;22.90;54.30
19947;DHT22;10135;50.702;7.276;2022-09-09T09:54:14;22.90;54.50
19947;DHT22;10135;50.702;7.276;2022-09-09T09:56:27;22.80;54.20
19947;DHT22;10135;50.702;7.276;2022-09-09T09:58:35;22.80;54.30
19947;DHT22;10135;50.702;7.276;2022-09-09T10:00:52;22.80;54.20
19947;DHT22;10135;50.702;7.276;2022-09-09T10:02:53;22.80;54.50
19947;DHT22;10135;50.702;7.276;2022-09-09T10:05:05;22.70;54.40
19947;DHT22;10135;50.702;7.276;2022-09-09T10:07:13;22.70;53.90
19947;DHT22;10135;50.702;7.276;2022-09-09T10:09:25;22.70;54.40
19947;DHT22;10135;50.702;7.276;2022-09-09T10:17:22;22.60;54.40
19947;DHT22;10135;50.702;7.276;2022-09-09T10:19:36;22.60;54.10
19947;DHT22;10135;50.702;7.276;2022-09-09T10:22:05;22.60;54.30
19947;DHT22;10135;50.702;7.276;2022-09-09T10:26:43;22.70;54.20
19947;DHT22;10135;50.702;7.276;2022-09-09T10:34:02;22.70;54.00
19947;DHT22;10135;50.702;7.276;2022-09-09T10:36:16;22.80;53.80
19947;DHT22;10135;50.702;7.276;2022-09-09T10:38:34;22.80;53.80
19947;DHT22;10135;50.702;7.276;2022-09-09T10:43:01;22.80;53.80
19947;DHT22;10135;50.702;7.276;2022-09-09T10:57:21;22.90;53.30
19947;DHT22;10135;50.702;7.276;2022-09-09T10:59:28;22.90;53.50
19947;DHT22;10135;50.702;7.276;2022-09-09T11:01:48;23.00;53.60
19947;DHT22;10135;50.702;7.276;2022-09-09T11:04:01;23.00;53.30
19947;DHT22;10135;50.702;7.276;2022-09-09T11:06:15;23.10;53.30
19947;DHT22;10135;50.702;7.276;2022-09-09T11:08:25;23.20;53.50
19947;DHT22;10135;50.702;7.276;2022-09-09T11:10:36;23.30;53.50
19947;DHT22;10135;50.702;7.276;2022-09-09T11:12:43;23.40;53.40
19947;DHT22;10135;50.702;7.276;2022-09-09T11:15:03;23.50;53.30
19947;DHT22;10135;50.702;7.276;2022-09-09T11:17:12;23.50;52.90
19947;DHT22;10135;50.702;7.276;2022-09-09T11:19:36;23.60;53.00
19947;DHT22;10135;50.702;7.276;2022-09-09T11:21:46;23.60;52.70
19947;DHT22;10135;50.702;7.276;2022-09-09T11:23:54;23.70;52.70
19947;DHT22;10135;50.702;7.276;2022-09-09T11:26:01;23.70;52.70
19947;DHT22;10135;50.702;7.276;2022-09-09T11:30:40;23.80;52.70
19947;DHT22;10135;50.702;7.276;2022-09-09T11:38:27;24.00;52.60
19947;DHT22;10135;50.702;7.276;2022-09-09T11:40:32;24.10;52.10
19947;DHT22;10135;50.702;7.276;2022-09-09T11:42:33;24.10;52.50
19947;DHT22;10135;50.702;7.276;2022-09-09T11:44:34;24.10;52.30
19947;DHT22;10135;50.702;7.276;2022-09-09T11:46:37;24.00;52.10
19947;DHT22;10135;50.702;7.276;2022-09-09T11:48:40;24.00;52.00
19947;DHT22;10135;50.702;7.276;2022-09-09T11:50:45;24.00;52.00
19947;DHT22;10135;50.702;7.276;2022-09-09T11:52:47;23.90;52.00
19947;DHT22;10135;50.702;7.276;2022-09-09T11:54:50;23.90;52.00
19947;DHT22;10135;50.702;7.276;2022-09-09T11:56:50;23.90;51.90
19947;DHT22;10135;50.702;7.276;2022-09-09T12:00:57;24.00;51.60
19947;DHT22;10135;50.702;7.276;2022-09-09T12:02:57;24.10;52.00
19947;DHT22;10135;50.702;7.276;2022-09-09T12:05:05;24.10;51.90
19947;DHT22;10135;50.702;7.276;2022-09-09T12:07:26;24.20;51.90
19947;DHT22;10135;50.702;7.276;2022-09-09T12:12:31;24.30;51.40
19947;DHT22;10135;50.702;7.276;2022-09-09T12:15:17;24.40;51.40
19947;DHT22;10135;50.702;7.276;2022-09-09T12:17:28;24.50;51.20
19947;DHT22;10135;50.702;7.276;2022-09-09T12:19:30;24.50;51.10
19947;DHT22;10135;50.702;7.276;2022-09-09T12:22:19;24.60;51.40
19947;DHT22;10135;50.702;7.276;2022-09-09T12:24:50;24.60;51.00
19947;DHT22;10135;50.702;7.276;2022-09-09T12:27:06;24.70;51.10
19947;DHT22;10135;50.702;7.276;2022-09-09T12:34:08;24.60;50.50
19947;DHT22;10135;50.702;7.276;2022-09-09T12:36:21;24.50;50.40
19947;DHT22;10135;50.702;7.276;2022-09-09T12:38:32;24.50;50.70
19947;DHT22;10135;50.702;7.276;2022-09-09T12:40:36;24.50;50.30
19947;DHT22;10135;50.702;7.276;2022-09-09T12:42:40;24.40;50.70
19947;DHT22;10135;50.702;7.276;2022-09-09T12:44:51;24.40;50.60
19947;DHT22;10135;50.702;7.276;2022-09-09T12:46:53;24.40;50.20
19947;DHT22;10135;50.702;7.276;2022-09-09T12:48:56;24.40;50.70
19947;DHT22;10135;50.702;7.276;2022-09-09T12:50:57;24.40;50.60
19947;DHT22;10135;50.702;7.276;2022-09-09T12:53:01;24.40;50.50
19947;DHT22;10135;50.702;7.276;2022-09-09T12:55:07;24.30;50.40
19947;DHT22;10135;50.702;7.276;2022-09-09T12:57:23;24.30;50.40
19947;DHT22;10135;50.702;7.276;2022-09-09T12:59:38;24.30;50.30
19947;DHT22;10135;50.702;7.276;2022-09-09T13:01:40;24.30;49.90
19947;DHT22;10135;50.702;7.276;2022-09-09T13:03:44;24.20;50.30
19947;DHT22;10135;50.702;7.276;2022-09-09T13:05:46;24.20;50.10
19947;DHT22;10135;50.702;7.276;2022-09-09T13:07:47;24.10;50.20
19947;DHT22;10135;50.702;7.276;2022-09-09T13:09:49;24.10;50.10
19947;DHT22;10135;50.702;7.276;2022-09-09T13:11:52;24.10;50.80
19947;DHT22;10135;50.702;7.276;2022-09-09T13:13:57;24.00;50.00
19947;DHT22;10135;50.702;7.276;2022-09-09T13:16:00;24.00;50.10
19947;DHT22;10135;50.702;7.276;2022-09-09T13:18:06;24.00;50.10
19947;DHT22;10135;50.702;7.276;2022-09-09T13:20:17;24.00;50.00
19947;DHT22;10135;50.702;7.276;2022-09-09T13:22:26;24.00;49.90
19947;DHT22;10135;50.702;7.276;2022-09-09T13:24:32;24.00;50.00
19947;DHT22;10135;50.702;7.276;2022-09-09T13:26:35;24.00;50.10
19947;DHT22;10135;50.702;7.276;2022-09-09T13:28:35;23.90;50.00
19947;DHT22;10135;50.702;7.276;2022-09-09T13:30:37;23.90;49.90
19947;DHT22;10135;50.702;7.276;2022-09-09T13:32:41;23.90;49.90
19947;DHT22;10135;50.702;7.276;2022-09-09T13:34:54;23.90;49.90
19947;DHT22;10135;50.702;7.276;2022-09-09T13:37:02;23.90;49.80
19947;DHT22;10135;50.702;7.276;2022-09-09T13:39:15;23.90;50.20
19947;DHT22;10135;50.702;7.276;2022-09-09T13:41:41;23.90;50.40
19947;DHT22;10135;50.702;7.276;2022-09-09T13:43:45;23.80;50.60
19947;DHT22;10135;50.702;7.276;2022-09-09T13:45:58;23.80;50.50
19947;DHT22;10135;50.702;7.276;2022-09-09T13:48:09;23.80;50.80
19947;DHT22;10135;50.702;7.276;2022-09-09T13:50:24;23.70;50.90
19947;DHT22;10135;50.702;7.276;2022-09-09T13:52:31;23.70;51.40
19947;DHT22;10135;50.702;7.276;2022-09-09T13:54:32;23.60;51.20
19947;DHT22;10135;50.702;7.276;2022-09-09T13:56:37;23.60;51.20
19947;DHT22;10135;50.702;7.276;2022-09-09T13:58:39;23.60;51.30
19947;DHT22;10135;50.702;7.276;2022-09-09T14:00:39;23.60;51.10
19947;DHT22;10135;50.702;7.276;2022-09-09T14:02:40;23.60;51.10
19947;DHT22;10135;50.702;7.276;2022-09-09T14:04:40;23.60;51.00
19947;DHT22;10135;50.702;7.276;2022-09-09T14:06:41;23.60;50.90
19947;DHT22;10135;50.702;7.276;2022-09-09T14:08:43;23.50;51.10
19947;DHT22;10135;50.702;7.276;2022-09-09T14:10:45;23.50;51.00
19947;DHT22;10135;50.702;7.276;2022-09-09T14:12:45;23.50;50.90
19947;DHT22;10135;50.702;7.276;2022-09-09T14:14:46;23.50;50.90
19947;DHT22;10135;50.702;7.276;2022-09-09T14:16:47;23.50;50.90
19947;DHT22;10135;50.702;7.276;2022-09-09T14:18:48;23.40;50.90
19947;DHT22;10135;50.702;7.276;2022-09-09T14:20:49;23.40;50.90
19947;DHT22;10135;50.702;7.276;2022-09-09T14:22:50;23.40;50.90
19947;DHT22;10135;50.702;7.276;2022-09-09T14:24:51;23.30;50.90
19947;DHT22;10135;50.702;7.276;2022-09-09T14:26:52;23.30;51.10
19947;DHT22;10135;50.702;7.276;2022-09-09T14:28:52;23.30;51.10
19947;DHT22;10135;50.702;7.276;2022-09-09T14:30:53;23.30;51.10
19947;DHT22;10135;50.702;7.276;2022-09-09T14:32:54;23.20;51.00
19947;DHT22;10135;50.702;7.276;2022-09-09T14:34:54;23.20;51.00
19947;DHT22;10135;50.702;7.276;2022-09-09T14:36:55;23.20;51.10
19947;DHT22;10135;50.702;7.276;2022-09-09T14:38:56;23.30;51.10
19947;DHT22;10135;50.702;7.276;2022-09-09T14:40:57;23.20;51.10
19947;DHT22;10135;50.702;7.276;2022-09-09T14:42:58;23.20;50.90
19947;DHT22;10135;50.702;7.276;2022-09-09T14:44:59;23.20;50.90
19947;DHT22;10135;50.702;7.276;2022-09-09T14:47:00;23.20;50.90
19947;DHT22;10135;50.702;7.276;2022-09-09T14:49:00;23.20;51.00
19947;DHT22;10135;50.702;7.276;2022-09-09T14:51:25;23.20;50.90
19947;DHT22;10135;50.702;7.276;2022-09-09T14:53:27;23.20;50.90
19947;DHT22;10135;50.702;7.276;2022-09-09T14:55:28;23.20;51.00
19947;DHT22;10135;50.702;7.276;2022-09-09T14:57:29;23.10;51.00
19947;DHT22;10135;50.702;7.276;2022-09-09T14:59:30;23.10;51.20
19947;DHT22;10135;50.702;7.276;2022-09-09T15:01:31;23.10;51.40
19947;DHT22;10135;50.702;7.276;2022-09-09T15:03:32;23.10;51.40
19947;DHT22;10135;50.702;7.276;2022-09-09T15:05:33;23.00;51.40
19947;DHT22;10135;50.702;7.276;2022-09-09T15:07:36;23.00;51.50
19947;DHT22;10135;50.702;7.276;2022-09-09T15:09:38;23.00;52.20
19947;DHT22;10135;50.702;7.276;2022-09-09T15:11:39;23.00;51.70
19947;DHT22;10135;50.702;7.276;2022-09-09T15:13:41;22.90;51.80
19947;DHT22;10135;50.702;7.276;2022-09-09T15:15:43;22.90;51.90
19947;DHT22;10135;50.702;7.276;2022-09-09T15:17:44;22.90;52.00
19947;DHT22;10135;50.702;7.276;2022-09-09T15:19:44;22.80;52.00
19947;DHT22;10135;50.702;7.276;2022-09-09T15:21:45;22.80;52.10
19947;DHT22;10135;50.702;7.276;2022-09-09T15:23:46;22.70;52.00
19947;DHT22;10135;50.702;7.276;2022-09-09T15:25:53;22.70;52.10
19947;DHT22;10135;50.702;7.276;2022-09-09T15:27:55;22.70;52.20
19947;DHT22;10135;50.702;7.276;2022-09-09T15:29:56;22.70;52.10
19947;DHT22;10135;50.702;7.276;2022-09-09T15:31:58;22.60;52.20
19947;DHT22;10135;50.702;7.276;2022-09-09T15:34:01;22.60;52.30
19947;DHT22;10135;50.702;7.276;2022-09-09T15:36:21;22.60;52.40
19947;DHT22;10135;50.702;7.276;2022-09-09T15:38:23;22.50;52.60
19947;DHT22;10135;50.702;7.276;2022-09-09T15:40:25;22.50;52.40
19947;DHT22;10135;50.702;7.276;2022-09-09T15:42:25;22.50;52.50
19947;DHT22;10135;50.702;7.276;2022-09-09T15:44:26;22.40;52.40
19947;DHT22;10135;50.702;7.276;2022-09-09T15:46:40;22.40;52.50
19947;DHT22;10135;50.702;7.276;2022-09-09T15:48:41;22.40;52.70
19947;DHT22;10135;50.702;7.276;2022-09-09T15:50:41;22.30;52.70
19947;DHT22;10135;50.702;7.276;2022-09-09T15:52:42;22.30;52.70
19947;DHT22;10135;50.702;7.276;2022-09-09T15:54:43;22.30;52.80
19947;DHT22;10135;50.702;7.276;2022-09-09T15:56:45;22.30;52.80
19947;DHT22;10135;50.702;7.276;2022-09-09T15:58:49;22.20;52.80
19947;DHT22;10135;50.702;7.276;2022-09-09T16:00:50;22.20;52.90
19947;DHT22;10135;50.702;7.276;2022-09-09T16:02:51;22.20;53.10
19947;DHT22;10135;50.702;7.276;2022-09-09T16:04:53;22.20;53.20
19947;DHT22;10135;50.702;7.276;2022-09-09T16:06:56;22.20;53.30
19947;DHT22;10135;50.702;7.276;2022-09-09T16:08:59;22.10;53.30
19947;DHT22;10135;50.702;7.276;2022-09-09T16:11:13;22.10;53.30
19947;DHT22;10135;50.702;7.276;2022-09-09T16:13:15;22.10;53.80
19947;DHT22;10135;50.702;7.276;2022-09-09T16:15:16;22.10;53.50
19947;DHT22;10135;50.702;7.276;2022-09-09T16:17:17;22.00;53.50
19947;DHT22;10135;50.702;7.276;2022-09-09T16:19:19;22.00;53.60
19947;DHT22;10135;50.702;7.276;2022-09-09T16:21:32;22.00;53.60
19947;DHT22;10135;50.702;7.276;2022-09-09T16:23:35;22.00;54.10
19947;DHT22;10135;50.702;7.276;2022-09-09T16:25:35;22.00;53.70
19947;DHT22;10135;50.702;7.276;2022-09-09T16:27:36;21.90;53.70
19947;DHT22;10135;50.702;7.276;2022-09-09T16:29:37;21.90;53.70
19947;DHT22;10135;50.702;7.276;2022-09-09T16:31:38;21.90;53.70
19947;DHT22;10135;50.702;7.276;2022-09-09T16:33:40;21.90;53.80
19947;DHT22;10135;50.702;7.276;2022-09-09T16:35:42;21.90;53.80
19947;DHT22;10135;50.702;7.276;2022-09-09T16:37:42;21.90;53.80
19947;DHT22;10135;50.702;7.276;2022-09-09T16:39:43;21.90;53.80
19947;DHT22;10135;50.702;7.276;2022-09-09T16:41:45;21.90;53.80
19947;DHT22;10135;50.702;7.276;2022-09-09T16:43:56;21.90;54.50
19947;DHT22;10135;50.702;7.276;2022-09-09T16:45:59;21.90;54.10
19947;DHT22;10135;50.702;7.276;2022-09-09T16:48:03;21.90;53.90
19947;DHT22;10135;50.702;7.276;2022-09-09T16:50:04;21.80;53.80
19947;DHT22;10135;50.702;7.276;2022-09-09T16:52:04;21.80;53.90
19947;DHT22;10135;50.702;7.276;2022-09-09T16:54:07;21.80;54.00
19947;DHT22;10135;50.702;7.276;2022-09-09T16:56:14;21.80;54.00
19947;DHT22;10135;50.702;7.276;2022-09-09T16:58:16;21.70;54.00
19947;DHT22;10135;50.702;7.276;2022-09-09T17:00:17;21.70;54.10
19947;DHT22;10135;50.702;7.276;2022-09-09T17:02:17;21.70;54.10
19947;DHT22;10135;50.702;7.276;2022-09-09T17:04:20;21.60;54.20
19947;DHT22;10135;50.702;7.276;2022-09-09T17:06:24;21.60;54.40
19947;DHT22;10135;50.702;7.276;2022-09-09T17:08:25;21.50;54.40
19947;DHT22;10135;50.702;7.276;2022-09-09T17:10:26;21.50;54.50
19947;DHT22;10135;50.702;7.276;2022-09-09T17:12:26;21.50;54.60
19947;DHT22;10135;50.702;7.276;2022-09-09T17:14:27;21.40;54.60
19947;DHT22;10135;50.702;7.276;2022-09-09T17:16:30;21.30;54.70
19947;DHT22;10135;50.702;7.276;2022-09-09T17:18:32;21.30;54.90
19947;DHT22;10135;50.702;7.276;2022-09-09T17:20:36;21.30;55.00
19947;DHT22;10135;50.702;7.276;2022-09-09T17:22:40;21.20;55.20
19947;DHT22;10135;50.702;7.276;2022-09-09T17:24:41;21.20;55.10
19947;DHT22;10135;50.702;7.276;2022-09-09T17:26:41;21.10;55.10
19947;DHT22;10135;50.702;7.276;2022-09-09T17:28:43;21.20;55.30
19947;DHT22;10135;50.702;7.276;2022-09-09T17:30:45;21.10;55.30
19947;DHT22;10135;50.702;7.276;2022-09-09T17:32:47;21.00;55.30
19947;DHT22;10135;50.702;7.276;2022-09-09T17:34:48;21.00;55.40
19947;DHT22;10135;50.702;7.276;2022-09-09T17:36:48;21.00;55.60
19947;DHT22;10135;50.702;7.276;2022-09-09T17:38:50;20.90;55.60
19947;DHT22;10135;50.702;7.276;2022-09-09T17:41:04;21.00;55.60
19947;DHT22;10135;50.702;7.276;2022-09-09T17:43:07;20.90;56.10
19947;DHT22;10135;50.702;7.276;2022-09-09T17:45:09;20.90;55.70
19947;DHT22;10135;50.702;7.276;2022-09-09T17:47:10;20.90;55.70
19947;DHT22;10135;50.702;7.276;2022-09-09T17:49:15;20.90;55.80
19947;DHT22;10135;50.702;7.276;2022-09-09T17:51:19;20.80;55.90
19947;DHT22;10135;50.702;7.276;2022-09-09T17:53:23;20.80;55.80
19947;DHT22;10135;50.702;7.276;2022-09-09T17:55:24;20.80;55.80
19947;DHT22;10135;50.702;7.276;2022-09-09T17:57:25;20.80;55.80
19947;DHT22;10135;50.702;7.276;2022-09-09T17:59:26;20.80;55.80
19947;DHT22;10135;50.702;7.276;2022-09-09T18:01:29;20.80;55.80
19947;DHT22;10135;50.702;7.276;2022-09-09T18:03:42;20.80;56.00
19947;DHT22;10135;50.702;7.276;2022-09-09T18:05:43;20.80;56.30
19947;DHT22;10135;50.702;7.276;2022-09-09T18:07:44;20.80;55.90
19947;DHT22;10135;50.702;7.276;2022-09-09T18:09:45;20.80;55.90
19947;DHT22;10135;50.702;7.276;2022-09-09T18:11:49;20.80;56.60
19947;DHT22;10135;50.702;7.276;2022-09-09T18:13:55;20.70;56.10
19947;DHT22;10135;50.702;7.276;2022-09-09T18:15:57;20.70;56.00
19947;DHT22;10135;50.702;7.276;2022-09-09T18:17:58;20.70;56.00
19947;DHT22;10135;50.702;7.276;2022-09-09T18:20:02;20.80;56.10
19947;DHT22;10135;50.702;7.276;2022-09-09T18:22:04;20.70;56.00
19947;DHT22;10135;50.702;7.276;2022-09-09T18:24:06;20.80;56.10
19947;DHT22;10135;50.702;7.276;2022-09-09T18:26:08;20.70;56.10
19947;DHT22;10135;50.702;7.276;2022-09-09T18:28:11;20.80;56.10
19947;DHT22;10135;50.702;7.276;2022-09-09T18:30:12;20.70;56.10
19947;DHT22;10135;50.702;7.276;2022-09-09T18:32:13;20.70;56.20
19947;DHT22;10135;50.702;7.276;2022-09-09T18:34:16;20.70;56.20
19947;DHT22;10135;50.702;7.276;2022-09-09T18:36:21;20.70;56.40
19947;DHT22;10135;50.702;7.276;2022-09-09T18:38:23;20.70;56.40
19947;DHT22;10135;50.702;7.276;2022-09-09T18:40:24;20.70;56.40
19947;DHT22;10135;50.702;7.276;2022-09-09T18:42:26;20.70;56.40
19947;DHT22;10135;50.702;7.276;2022-09-09T18:44:30;20.70;56.40
19947;DHT22;10135;50.702;7.276;2022-09-09T18:46:34;20.70;56.50
19947;DHT22;10135;50.702;7.276;2022-09-09T18:48:36;20.70;56.50
19947;DHT22;10135;50.702;7.276;2022-09-09T18:50:37;20.70;56.50
19947;DHT22;10135;50.702;7.276;2022-09-09T18:52:37;20.60;56.50
19947;DHT22;10135;50.702;7.276;2022-09-09T18:54:38;20.60;56.50
19947;DHT22;10135;50.702;7.276;2022-09-09T18:56:41;20.60;56.60
19947;DHT22;10135;50.702;7.276;2022-09-09T18:58:43;20.60;56.70
19947;DHT22;10135;50.702;7.276;2022-09-09T19:00:45;20.50;56.60
19947;DHT22;10135;50.702;7.276;2022-09-09T19:02:48;20.50;56.80
19947;DHT22;10135;50.702;7.276;2022-09-09T19:04:52;20.50;56.90
19947;DHT22;10135;50.702;7.276;2022-09-09T19:06:53;20.50;56.80
19947;DHT22;10135;50.702;7.276;2022-09-09T19:08:57;20.50;56.90
19947;DHT22;10135;50.702;7.276;2022-09-09T19:11:00;20.50;57.00
19947;DHT22;10135;50.702;7.276;2022-09-09T19:13:01;20.40;57.10
19947;DHT22;10135;50.702;7.276;2022-09-09T19:15:03;20.40;57.00
19947;DHT22;10135;50.702;7.276;2022-09-09T19:17:03;20.40;57.10
19947;DHT22;10135;50.702;7.276;2022-09-09T19:19:08;20.40;57.10
19947;DHT22;10135;50.702;7.276;2022-09-09T19:21:25;20.30;57.20
19947;DHT22;10135;50.702;7.276;2022-09-09T19:23:30;20.30;57.50
19947;DHT22;10135;50.702;7.276;2022-09-09T19:25:35;20.30;57.20
19947;DHT22;10135;50.702;7.276;2022-09-09T19:27:36;20.30;57.50
19947;DHT22;10135;50.702;7.276;2022-09-09T19:29:37;20.20;57.30
19947;DHT22;10135;50.702;7.276;2022-09-09T19:31:43;20.20;57.30
19947;DHT22;10135;50.702;7.276;2022-09-09T19:33:46;20.10;57.40
19947;DHT22;10135;50.702;7.276;2022-09-09T19:35:56;20.10;57.50
19947;DHT22;10135;50.702;7.276;2022-09-09T19:38:03;20.10;58.00
19947;DHT22;10135;50.702;7.276;2022-09-09T19:40:04;20.00;57.50
19947;DHT22;10135;50.702;7.276;2022-09-09T19:42:07;20.00;57.70
19947;DHT22;10135;50.702;7.276;2022-09-09T19:44:11;20.00;57.70